Time;durP1;ratioP1;P1;durP2;ratioP2;P2;SDS_P1;SDS_P2;PMS_P1;PMS_P2;Temp;Humidity;BMP_temperature;BMP_pressure;BME280_temperature;BME280_humidity;BME280_pressure;Samples;Min_cycle;Max_cycle;Signal;HPM_P1;HPM_P2
2022/03/12 00:04:15;;;;;;;4.10;3.77;;;6.80;13.80;;;;;;10383079;28;20251;-78
2022/03/12 00:09:18;;;;;;;5.07;4.27;;;6.70;13.70;;;;;;10377543;28;20230;-78
2022/03/12 00:14:23;;;;;;;4.77;4.37;;;6.60;14.30;;;;;;10377410;28;20237;-78
2022/03/12 00:19:27;;;;;;;4.90;4.13;;;6.60;13.70;;;;;;10382733;28;20638;-78
2022/03/12 00:24:31;;;;;;;5.13;4.40;;;6.50;13.80;;;;;;10377477;28;20229;-78
2022/03/12 00:29:35;;;;;;;4.20;3.87;;;6.50;13.80;;;;;;10381575;28;20225;-78
2022/03/12 00:34:40;;;;;;;4.93;4.50;;;6.40;13.70;;;;;;10377102;28;20245;-77
2022/03/12 00:39:44;;;;;;;5.20;4.20;;;6.30;13.80;;;;;;10385510;28;20244;-78
2022/03/12 00:44:47;;;;;;;5.33;4.80;;;6.20;13.70;;;;;;10379566;28;20234;-78
2022/03/12 00:49:52;;;;;;;6.10;5.50;;;6.10;13.90;;;;;;10382694;28;20230;-77
2022/03/12 00:54:55;;;;;;;6.23;5.63;;;6.00;14.00;;;;;;10384621;28;20234;-78
2022/03/12 00:59:59;;;;;;;6.57;5.87;;;5.90;14.00;;;;;;10394008;28;20238;-78
2022/03/12 01:05:04;;;;;;;5.60;5.10;;;5.90;14.20;;;;;;10387467;28;20233;-78
2022/03/12 01:10:07;;;;;;;5.00;4.53;;;5.90;14.30;;;;;;10394579;28;20237;-78
2022/03/12 01:15:12;;;;;;;4.20;3.80;;;5.80;14.30;;;;;;10384142;28;20241;-77
2022/03/12 01:20:21;;;;;;;5.43;4.13;;;5.80;14.40;;;;;;10388213;28;20225;-78
2022/03/12 01:25:24;;;;;;;4.67;4.20;;;5.70;14.50;;;;;;10389652;28;20329;-78
2022/03/12 01:30:29;;;;;;;4.50;4.10;;;5.60;14.50;;;;;;10384086;28;20233;-78
2022/03/12 01:35:34;;;;;;;4.33;3.93;;;5.60;14.70;;;;;;10383808;28;20241;-77
2022/03/12 01:40:37;;;;;;;4.83;4.30;;;5.50;14.70;;;;;;10391094;28;20244;-77
2022/03/12 01:45:40;;;;;;;4.47;3.67;;;5.50;14.70;;;;;;10385977;28;20874;-77
2022/03/12 01:50:45;;;;;;;4.60;4.20;;;5.40;14.70;;;;;;10388122;28;20228;-77
2022/03/12 01:55:48;;;;;;;5.20;4.20;;;5.40;14.90;;;;;;10384617;28;20305;-77
2022/03/12 02:00:53;;;;;;;4.60;4.20;;;5.40;15.00;;;;;;10387618;28;20222;-76
2022/03/12 02:05:58;;;;;;;4.63;4.17;;;5.30;15.00;;;;;;10384989;28;21052;-76
2022/03/12 02:11:02;;;;;;;4.50;3.93;;;5.20;15.20;;;;;;10388184;28;20279;-76
2022/03/12 02:16:08;;;;;;;4.70;4.30;;;5.20;15.00;;;;;;10391107;28;20234;-75
2022/03/12 02:21:12;;;;;;;5.70;4.07;;;5.10;15.20;;;;;;10391532;28;20254;-76
2022/03/12 02:26:17;;;;;;;6.07;4.70;;;5.00;15.20;;;;;;10378358;28;20702;-76
2022/03/12 02:31:26;;;;;;;4.80;4.30;;;5.00;15.20;;;;;;10386622;28;20226;-76
2022/03/12 02:36:30;;;;;;;4.13;3.77;;;4.90;15.30;;;;;;10386807;28;20253;-76
2022/03/12 02:41:35;;;;;;;4.53;4.13;;;4.90;15.20;;;;;;10385964;28;20229;-76
2022/03/12 02:46:41;;;;;;;6.17;4.73;;;4.80;15.30;;;;;;10381281;28;20582;-76
2022/03/12 02:51:44;;;;;;;4.67;4.27;;;4.70;15.90;;;;;;10383118;28;20265;-76
2022/03/12 02:56:50;;;;;;;4.60;4.07;;;4.60;15.30;;;;;;10380845;28;20257;-76
2022/03/12 03:01:58;;;;;;;4.47;4.07;;;4.50;15.20;;;;;;10382806;28;20266;-76
2022/03/12 03:07:02;;;;;;;4.60;3.57;;;4.30;15.10;;;;;;10390085;28;20287;-76
2022/03/12 03:12:09;;;;;;;4.57;4.17;;;4.20;15.40;;;;;;10386561;28;20714;-76
2022/03/12 03:17:12;;;;;;;4.27;3.87;;;4.20;15.60;;;;;;10388585;28;20257;-76
2022/03/12 03:22:15;;;;;;;4.40;4.00;;;4.10;15.60;;;;;;10376737;28;20226;-76
2022/03/12 03:27:20;;;;;;;4.73;4.13;;;4.00;15.50;;;;;;10384025;28;20234;-76
2022/03/12 03:32:23;;;;;;;3.83;3.43;;;4.00;15.50;;;;;;10381968;28;20231;-76
2022/03/12 03:37:26;;;;;;;5.00;4.50;;;3.90;15.40;;;;;;10376881;28;20237;-76
2022/03/12 03:42:31;;;;;;;4.17;3.77;;;3.90;15.50;;;;;;10388929;28;20244;-76
2022/03/12 03:47:34;;;;;;;4.47;4.07;;;3.80;15.80;;;;;;10379100;28;20230;-78
2022/03/12 03:52:37;;;;;;;4.67;4.13;;;3.90;15.90;;;;;;10376163;28;20226;-75
2022/03/12 03:57:42;;;;;;;4.70;4.30;;;3.80;16.00;;;;;;10381033;28;20892;-75
2022/03/12 04:02:45;;;;;;;5.33;4.37;;;4.00;16.30;;;;;;10386425;28;20237;-75
2022/03/12 04:07:48;;;;;;;4.73;4.30;;;3.80;16.20;;;;;;10382833;28;20258;-76
2022/03/12 04:12:53;;;;;;;4.93;4.33;;;3.80;16.30;;;;;;10381130;28;20252;-78
2022/03/12 04:17:57;;;;;;;4.60;3.87;;;3.70;16.50;;;;;;10384594;28;20644;-76
2022/03/12 04:23:00;;;;;;;4.30;3.90;;;3.60;16.40;;;;;;10377730;28;20229;-76
2022/03/12 04:28:06;;;;;;;4.90;4.23;;;3.50;16.40;;;;;;10389836;28;20217;-76
2022/03/12 04:33:11;;;;;;;4.40;4.00;;;3.40;16.50;;;;;;10389677;28;20885;-76
2022/03/12 04:38:14;;;;;;;4.47;3.93;;;3.30;16.20;;;;;;10386620;28;20325;-76
2022/03/12 04:43:19;;;;;;;4.07;3.67;;;3.20;16.30;;;;;;10383022;28;20714;-75
2022/03/12 04:48:23;;;;;;;3.63;3.33;;;3.20;16.30;;;;;;10392218;28;20225;-76
2022/03/12 04:53:27;;;;;;;4.97;4.30;;;3.10;16.30;;;;;;10391598;28;20249;-76
2022/03/12 04:58:32;;;;;;;3.20;2.90;;;3.10;16.50;;;;;;10394005;28;20222;-75
2022/03/12 05:03:37;;;;;;;4.03;3.63;;;3.10;16.50;;;;;;10408222;28;20226;-76
2022/03/12 05:08:41;;;;;;;4.20;3.63;;;3.10;16.60;;;;;;10387978;28;20240;-75
2022/03/12 05:13:45;;;;;;;4.37;3.57;;;3.10;16.60;;;;;;10395627;28;20256;-75
2022/03/12 05:18:48;;;;;;;4.17;3.77;;;3.10;16.70;;;;;;10388536;28;20802;-76
2022/03/12 05:23:51;;;;;;;5.30;3.93;;;3.10;16.70;;;;;;10400416;28;20279;-76
2022/03/12 05:28:56;;;;;;;3.80;3.07;;;3.10;16.70;;;;;;10402659;28;20222;-75
2022/03/12 05:33:59;;;;;;;4.43;3.97;;;3.10;16.80;;;;;;10397616;28;20238;-76
2022/03/12 05:39:03;;;;;;;4.40;3.83;;;3.10;16.60;;;;;;10398562;28;20221;-75
2022/03/12 05:44:08;;;;;;;4.83;4.23;;;3.00;16.60;;;;;;10400165;28;20234;-75
2022/03/12 05:49:11;;;;;;;5.83;3.97;;;3.00;16.70;;;;;;10401652;28;20223;-75
2022/03/12 05:54:14;;;;;;;4.80;4.30;;;3.00;16.70;;;;;;10400862;28;20240;-75
2022/03/12 05:59:19;;;;;;;5.60;4.10;;;2.90;16.70;;;;;;10397749;28;20221;-75
2022/03/12 06:04:26;;;;;;;4.13;3.80;;;2.90;16.90;;;;;;10398912;28;20229;-75
2022/03/12 06:09:29;;;;;;;4.10;3.70;;;2.80;16.80;;;;;;10399018;28;20226;-75
2022/03/12 06:14:38;;;;;;;4.07;3.67;;;2.80;17.00;;;;;;10388484;28;20232;-75
2022/03/12 06:19:42;;;;;;;6.17;5.37;;;2.90;17.30;;;;;;10403211;28;20240;-75
2022/03/12 06:24:46;;;;;;;4.67;4.17;;;2.80;17.30;;;;;;10400559;28;20234;-75
2022/03/12 06:29:51;;;;;;;4.30;3.90;;;2.90;17.40;;;;;;10385154;28;20717;-75
2022/03/12 06:34:55;;;;;;;5.50;4.40;;;2.90;17.70;;;;;;10395277;28;20233;-75
2022/03/12 06:39:59;;;;;;;4.97;4.37;;;2.90;17.60;;;;;;10389141;28;20229;-75
2022/03/12 06:45:05;;;;;;;5.23;4.00;;;2.90;17.60;;;;;;10397526;28;20237;-75
2022/03/12 06:50:12;;;;;;;6.13;4.43;;;2.90;17.80;;;;;;10400379;28;20232;-75
2022/03/12 06:55:15;;;;;;;5.70;3.80;;;3.00;17.80;;;;;;10393962;28;20218;-75
2022/03/12 07:00:24;;;;;;;5.40;4.17;;;3.10;17.80;;;;;;10394307;28;20233;-77
2022/03/12 07:05:28;;;;;;;8.53;4.97;;;3.10;18.00;;;;;;10409277;28;20229;-75
2022/03/12 07:10:31;;;;;;;12.90;4.40;;;3.10;17.70;;;;;;10392776;28;20598;-75
2022/03/12 07:15:35;;;;;;;8.67;4.37;;;3.20;17.70;;;;;;10399625;28;20236;-75
2022/03/12 07:20:39;;;;;;;8.53;4.57;;;3.30;17.90;;;;;;10398754;28;20234;-75
2022/03/12 07:25:42;;;;;;;8.97;4.83;;;3.30;17.80;;;;;;10400941;28;20234;-75
2022/03/12 07:30:47;;;;;;;4.67;4.20;;;3.40;17.80;;;;;;10398982;28;20228;-75
2022/03/12 07:35:50;;;;;;;5.77;4.37;;;3.50;17.90;;;;;;10404696;28;20237;-75
2022/03/12 07:40:53;;;;;;;6.00;4.27;;;3.60;17.70;;;;;;10400743;28;20229;-75
2022/03/12 07:45:58;;;;;;;5.53;4.63;;;3.70;17.80;;;;;;10395944;28;20273;-75
2022/03/12 07:51:02;;;;;;;5.13;4.40;;;3.80;17.90;;;;;;10380282;28;20226;-76
2022/03/12 07:56:06;;;;;;;5.10;4.17;;;3.90;17.80;;;;;;10396925;28;20225;-76
2022/03/12 08:01:11;;;;;;;5.10;4.53;;;4.10;17.50;;;;;;10405526;28;20237;-76
2022/03/12 08:06:16;;;;;;;4.87;4.37;;;4.30;17.50;;;;;;10403690;28;20260;-77
2022/03/12 08:11:27;;;;;;;5.20;4.13;;;4.50;17.60;;;;;;10405047;28;20401;-76
2022/03/12 08:16:33;;;;;;;8.50;5.03;;;4.70;17.60;;;;;;10407456;28;20225;-77
2022/03/12 08:21:37;;;;;;;5.67;5.03;;;5.00;17.60;;;;;;10395750;28;20764;-77
2022/03/12 08:26:48;;;;;;;7.47;5.50;;;5.20;17.30;;;;;;10414343;28;20234;-77
2022/03/12 08:31:53;;;;;;;4.87;4.37;;;5.40;17.30;;;;;;10409453;28;20237;-76
2022/03/12 08:36:56;;;;;;;5.30;4.80;;;5.60;17.30;;;;;;10400828;28;20764;-77
2022/03/12 08:41:59;;;;;;;6.33;4.97;;;5.90;17.30;;;;;;10395342;28;20658;-77
2022/03/12 08:47:05;;;;;;;5.93;5.33;;;6.10;16.80;;;;;;10383214;28;20321;-76
2022/03/12 08:52:09;;;;;;;7.63;5.33;;;6.40;17.00;;;;;;10388673;28;20233;-76
2022/03/12 08:57:13;;;;;;;6.50;5.37;;;6.60;17.10;;;;;;10386843;28;20245;-76
2022/03/12 09:02:17;;;;;;;6.07;5.47;;;6.70;17.20;;;;;;10391102;28;20244;-76
2022/03/12 09:07:21;;;;;;;6.37;5.77;;;7.00;17.20;;;;;;10389318;28;20230;-76
2022/03/12 09:12:25;;;;;;;5.70;5.17;;;7.10;17.40;;;;;;10396662;28;20380;-76
2022/03/12 09:17:29;;;;;;;6.37;5.00;;;7.30;17.40;;;;;;10384414;28;21182;-75
2022/03/12 09:22:33;;;;;;;7.97;5.37;;;7.60;17.30;;;;;;10389157;28;20237;-76
2022/03/12 09:27:36;;;;;;;7.83;6.27;;;7.80;17.10;;;;;;10390797;28;20991;-76
2022/03/12 09:32:41;;;;;;;6.07;5.47;;;8.00;17.00;;;;;;10395310;28;20589;-78
2022/03/12 09:37:45;;;;;;;6.10;5.50;;;8.20;17.20;;;;;;10391350;28;20234;-77
2022/03/12 09:42:49;;;;;;;7.87;5.97;;;8.50;17.10;;;;;;10382492;28;20288;-76
2022/03/12 09:47:53;;;;;;;7.50;5.73;;;8.70;17.10;;;;;;10403261;28;20225;-76
2022/03/12 09:52:57;;;;;;;6.93;6.23;;;8.90;17.10;;;;;;10402178;28;20944;-76
2022/03/12 09:58:00;;;;;;;10.33;7.80;;;9.10;16.90;;;;;;10396148;28;20225;-76
2022/03/12 10:03:05;;;;;;;8.70;7.50;;;9.30;16.80;;;;;;10398265;28;20244;-76
2022/03/12 10:08:08;;;;;;;7.77;7.00;;;9.50;16.80;;;;;;10400754;28;20261;-76
2022/03/12 10:13:11;;;;;;;7.87;7.07;;;9.70;16.90;;;;;;10392550;28;20233;-75
2022/03/12 10:18:16;;;;;;;9.53;7.60;;;10.00;16.00;;;;;;10398933;28;20252;-75
2022/03/12 10:23:19;;;;;;;8.03;6.87;;;10.20;16.10;;;;;;10397216;28;20225;-75
2022/03/12 10:28:22;;;;;;;9.27;8.37;;;10.40;16.00;;;;;;10394137;28;20234;-75
2022/03/12 10:33:27;;;;;;;10.17;7.60;;;10.60;16.00;;;;;;10394524;28;20592;-75
2022/03/12 10:38:38;;;;;;;8.60;7.50;;;10.80;16.00;;;;;;10397317;28;20228;-75
2022/03/12 10:43:47;;;;;;;8.80;7.87;;;11.00;15.60;;;;;;10396175;28;20738;-75
2022/03/12 10:48:56;;;;;;;10.00;8.53;;;11.20;15.60;;;;;;10397020;28;20226;-75
2022/03/12 10:54:07;;;;;;;9.60;8.63;;;11.40;15.50;;;;;;10398288;28;20690;-76
2022/03/12 10:59:16;;;;;;;8.80;7.90;;;11.50;15.60;;;;;;10405147;28;20500;-75
2022/03/12 11:04:24;;;;;;;10.57;8.83;;;11.60;15.70;;;;;;10397788;28;20827;-77
2022/03/12 11:09:34;;;;;;;10.53;8.50;;;11.90;15.80;;;;;;10391326;28;20229;-77
2022/03/12 11:14:38;;;;;;;10.00;9.00;;;12.00;15.40;;;;;;10397286;28;20936;-75
2022/03/12 11:19:45;;;;;;;10.80;9.70;;;12.20;15.70;;;;;;10389054;28;20226;-75
2022/03/12 11:24:51;;;;;;;10.30;9.30;;;12.40;15.40;;;;;;10389682;28;20614;-75
2022/03/12 11:30:02;;;;;;;11.77;10.20;;;12.50;15.50;;;;;;10395298;28;20232;-76
2022/03/12 11:35:10;;;;;;;11.23;9.70;;;12.70;15.10;;;;;;10390060;28;20232;-76
2022/03/12 11:40:19;;;;;;;10.80;9.70;;;12.80;15.40;;;;;;10394178;28;20791;-76
2022/03/12 11:45:22;;;;;;;12.83;9.70;;;13.00;15.10;;;;;;10390529;28;20261;-76
2022/03/12 11:50:29;;;;;;;10.47;9.37;;;13.00;15.30;;;;;;10394110;28;20228;-76
2022/03/12 11:55:32;;;;;;;12.77;9.50;;;13.10;15.30;;;;;;10386826;28;20261;-76
2022/03/12 12:00:35;;;;;;;13.03;10.10;;;13.20;15.40;;;;;;10385113;28;21223;-76
2022/03/12 12:05:43;;;;;;;11.90;10.07;;;13.30;15.30;;;;;;10392992;28;20266;-76
2022/03/12 12:10:47;;;;;;;10.70;9.63;;;13.40;15.10;;;;;;10393760;28;20792;-76
2022/03/12 12:15:50;;;;;;;11.73;10.13;;;13.50;15.30;;;;;;10394583;28;20789;-76
2022/03/12 12:20:55;;;;;;;13.00;10.57;;;13.50;15.00;;;;;;10384784;28;20312;-76
2022/03/12 12:26:08;;;;;;;10.33;9.33;;;13.60;14.80;;;;;;10396676;28;20280;-76
2022/03/12 12:31:20;;;;;;;11.27;10.07;;;13.60;14.80;;;;;;10379689;28;20225;-76
2022/03/12 12:36:25;;;;;;;12.13;10.70;;;13.60;14.80;;;;;;10384105;28;20665;-76
2022/03/12 12:41:53;;;;;;;11.47;10.00;;;13.70;14.80;;;;;;10389732;28;20240;-77
2022/03/12 12:46:57;;;;;;;11.97;10.77;;;13.80;14.80;;;;;;10392024;28;20312;-76
2022/03/12 12:52:02;;;;;;;13.07;10.47;;;13.90;15.00;;;;;;10386510;28;20741;-76
2022/03/12 12:57:12;;;;;;;13.43;11.90;;;14.00;15.00;;;;;;10402377;28;20596;-76
2022/03/12 13:02:16;;;;;;;12.10;10.73;;;14.10;14.70;;;;;;10398130;28;20256;-76
2022/03/12 13:07:25;;;;;;;11.80;10.60;;;14.20;15.10;;;;;;10393333;28;20233;-76
2022/03/12 13:12:43;;;;;;;11.37;10.20;;;14.20;14.80;;;;;;10399360;28;20395;-76
2022/03/12 13:17:48;;;;;;;12.27;10.97;;;14.40;14.80;;;;;;10388241;28;20283;-76
2022/03/12 13:22:58;;;;;;;13.30;10.77;;;14.40;14.90;;;;;;10393158;28;20611;-76
2022/03/12 13:28:03;;;;;;;11.93;10.80;;;14.50;14.40;;;;;;10392275;28;20690;-76
2022/03/12 13:33:10;;;;;;;13.90;11.50;;;14.60;14.80;;;;;;10388633;28;20226;-76
2022/03/12 13:38:16;;;;;;;13.20;11.80;;;14.60;14.70;;;;;;10392544;28;20234;-76
2022/03/12 13:43:20;;;;;;;13.10;10.80;;;14.70;14.60;;;;;;10391547;28;20238;-76
2022/03/12 13:48:23;;;;;;;12.60;11.03;;;14.80;14.70;;;;;;10402035;28;20834;-76
2022/03/12 13:53:30;;;;;;;13.27;11.50;;;14.80;14.60;;;;;;10391787;28;20230;-77
2022/03/12 13:58:42;;;;;;;12.37;11.07;;;14.90;14.50;;;;;;10397011;28;20333;-77
2022/03/12 14:03:46;;;;;;;12.17;10.93;;;15.00;14.40;;;;;;10397901;28;20238;-77
2022/03/12 14:08:50;;;;;;;12.87;11.47;;;15.10;14.60;;;;;;10392664;28;20230;-77
2022/03/12 14:13:59;;;;;;;12.63;11.33;;;15.10;14.40;;;;;;10400326;28;20240;-76
2022/03/12 14:19:03;;;;;;;15.10;11.83;;;15.20;14.20;;;;;;10397177;28;20700;-76
2022/03/12 14:24:17;;;;;;;14.13;12.13;;;15.20;14.40;;;;;;10397759;28;20308;-77
2022/03/12 14:29:23;;;;;;;12.20;10.80;;;15.20;13.80;;;;;;10397192;28;20227;-77
2022/03/12 14:34:29;;;;;;;12.47;10.80;;;15.30;14.30;;;;;;10373058;28;21334;-75
2022/03/12 14:39:34;;;;;;;11.63;10.23;;;15.40;14.70;;;;;;10371578;28;20234;-74
2022/03/12 15:09:11;;;;;;;10.40;9.33;;;15.50;12.90;;;;;;10378295;22;20246;-76
2022/03/12 15:20:07;;;;;;;10.23;9.07;;;15.50;13.50;;;;;;10406017;22;20735;-76
2022/03/12 15:25:14;;;;;;;8.77;7.80;;;15.40;12.80;;;;;;10338089;28;20715;-75
2022/03/12 15:30:18;;;;;;;11.43;8.80;;;15.40;13.20;;;;;;10343903;28;20230;-75
2022/03/12 15:35:35;;;;;;;9.03;8.10;;;15.40;13.40;;;;;;10342601;28;20237;-74
2022/03/12 15:40:40;;;;;;;9.47;8.33;;;15.40;12.60;;;;;;10344001;28;20609;-75
2022/03/12 15:46:31;;;;;;;9.53;8.60;;;15.40;13.20;;;;;;10314245;28;20250;-76
2022/03/12 15:52:21;;;;;;;9.43;8.50;;;15.30;12.80;;;;;;10152254;28;20650;-75
2022/03/12 16:04:50;;;;;;;10.10;9.07;;;15.30;14.30;;;;;;10151563;28;20298;-76
2022/03/12 16:22:30;;;;;;;8.80;7.87;;;15.40;12.80;;;;;;9835610;29;20249;-76
2022/03/12 16:27:34;;;;;;;9.23;8.07;;;15.30;13.10;;;;;;10186130;28;20231;-75
2022/03/12 16:32:37;;;;;;;10.83;9.13;;;15.30;13.50;;;;;;10282666;28;20733;-76
2022/03/12 16:37:42;;;;;;;10.47;8.97;;;15.30;13.20;;;;;;10277297;28;20743;-76
2022/03/12 16:42:49;;;;;;;10.17;8.63;;;15.30;13.10;;;;;;10274281;28;20771;-76
2022/03/12 16:47:57;;;;;;;11.37;9.57;;;15.20;12.90;;;;;;10282004;28;20236;-76
2022/03/12 16:53:02;;;;;;;8.73;7.93;;;15.20;12.90;;;;;;10413323;28;20225;-77
2022/03/12 16:58:05;;;;;;;9.73;8.03;;;15.10;12.70;;;;;;10433780;28;20657;-77
2022/03/12 17:03:09;;;;;;;9.27;8.13;;;15.10;13.00;;;;;;10441173;28;20237;-77
2022/03/12 17:08:14;;;;;;;8.47;7.00;;;15.00;12.90;;;;;;10439886;28;20884;-77
2022/03/12 17:13:18;;;;;;;13.33;9.47;;;14.80;12.80;;;;;;10436812;28;20251;-77
2022/03/12 17:18:23;;;;;;;16.37;9.73;;;14.70;12.80;;;;;;10435383;28;20937;-78
2022/03/12 17:23:28;;;;;;;13.20;8.63;;;14.60;12.70;;;;;;10431782;28;20245;-76
2022/03/12 17:28:31;;;;;;;10.03;8.87;;;14.50;12.60;;;;;;10439626;28;20233;-78
2022/03/12 17:33:36;;;;;;;10.10;8.50;;;14.40;12.80;;;;;;10437316;28;20229;-78
2022/03/12 17:38:40;;;;;;;9.40;8.03;;;14.20;12.80;;;;;;10428360;28;20233;-78
2022/03/12 17:43:45;;;;;;;8.33;6.97;;;14.10;12.70;;;;;;10437392;28;20243;-78
2022/03/12 17:48:48;;;;;;;9.33;7.67;;;13.90;12.80;;;;;;10439195;28;20237;-77
2022/03/12 17:53:53;;;;;;;8.60;7.47;;;13.70;12.60;;;;;;10434953;28;20235;-77
2022/03/12 17:58:57;;;;;;;7.10;6.13;;;13.60;12.70;;;;;;10434381;28;20295;-77
2022/03/12 18:09:58;;;;;;;13.20;11.30;;;13.30;12.50;;;;;;10357520;22;20238;-78
2022/03/12 18:15:03;;;;;;;12.80;10.10;;;13.10;12.60;;;;;;10399319;28;20243;-78
2022/03/12 18:20:08;;;;;;;11.63;9.57;;;12.90;12.80;;;;;;10407442;28;20226;-78
2022/03/12 18:25:15;;;;;;;8.67;7.73;;;12.70;12.80;;;;;;10405846;28;20583;-78
2022/03/12 18:30:19;;;;;;;8.87;7.50;;;12.50;12.70;;;;;;10406105;28;20226;-77
2022/03/12 18:35:22;;;;;;;9.27;6.20;;;12.40;12.80;;;;;;10401689;28;20244;-77
2022/03/12 18:40:30;;;;;;;6.53;5.90;;;12.30;12.70;;;;;;10406888;28;20233;-77
2022/03/12 18:45:33;;;;;;;5.30;4.80;;;12.10;12.60;;;;;;10405423;28;20232;-77
2022/03/12 18:50:36;;;;;;;5.70;5.20;;;12.00;12.70;;;;;;10403052;28;20234;-77
2022/03/12 18:55:47;;;;;;;8.17;4.83;;;11.90;12.70;;;;;;10400265;28;20477;-78
2022/03/12 19:00:50;;;;;;;6.27;5.50;;;11.80;12.80;;;;;;10400573;28;20238;-77
2022/03/12 19:05:55;;;;;;;8.70;5.40;;;11.70;12.80;;;;;;10403359;28;20329;-77
2022/03/12 19:11:04;;;;;;;5.00;4.50;;;11.60;12.90;;;;;;10401547;28;20318;-77
2022/03/12 19:16:09;;;;;;;5.83;5.20;;;11.40;12.70;;;;;;10396355;28;20240;-77
2022/03/12 19:21:13;;;;;;;6.13;5.13;;;11.30;12.80;;;;;;10403515;28;20287;-77
2022/03/12 19:26:18;;;;;;;6.90;6.13;;;11.20;12.90;;;;;;10403828;28;20581;-77
2022/03/12 19:31:21;;;;;;;7.67;6.57;;;11.10;12.90;;;;;;10403046;28;20229;-79
2022/03/12 19:36:24;;;;;;;8.00;5.83;;;11.00;13.10;;;;;;10398495;28;20261;-77
2022/03/12 19:41:31;;;;;;;8.37;6.17;;;10.80;13.20;;;;;;10402267;28;20901;-79
2022/03/12 19:46:34;;;;;;;7.10;5.17;;;10.70;13.30;;;;;;10402399;28;20244;-79
2022/03/12 19:51:37;;;;;;;7.10;6.40;;;10.50;13.20;;;;;;10405810;28;20308;-77
2022/03/12 19:56:41;;;;;;;7.63;5.83;;;10.40;13.40;;;;;;10399614;28;20238;-80
2022/03/12 20:01:45;;;;;;;8.63;7.03;;;10.20;13.50;;;;;;10399903;28;20249;-79
2022/03/12 20:06:52;;;;;;;7.80;6.67;;;10.00;13.40;;;;;;10407605;28;20241;-79
2022/03/12 20:12:03;;;;;;;8.63;6.37;;;9.90;14.00;;;;;;10406891;28;20232;-79
2022/03/12 20:17:06;;;;;;;7.87;6.50;;;9.70;14.10;;;;;;10396099;28;20288;-76
2022/03/12 20:22:13;;;;;;;7.33;5.93;;;9.60;14.10;;;;;;10386261;28;20244;-77
2022/03/12 20:27:20;;;;;;;8.47;6.67;;;9.40;14.20;;;;;;10397448;28;20230;-78
2022/03/12 20:32:24;;;;;;;6.73;5.83;;;9.30;14.30;;;;;;10395012;28;20246;-77
2022/03/12 20:37:28;;;;;;;8.77;6.00;;;9.20;14.40;;;;;;10393244;28;20236;-77
2022/03/12 20:42:33;;;;;;;7.10;5.87;;;9.10;14.40;;;;;;10392332;28;20256;-77
2022/03/12 20:47:36;;;;;;;7.10;6.27;;;9.00;14.60;;;;;;10396666;28;21017;-77
2022/03/12 20:52:39;;;;;;;9.47;6.27;;;8.90;14.60;;;;;;10396752;28;20260;-77
2022/03/12 20:57:44;;;;;;;7.53;6.27;;;8.70;14.50;;;;;;10395470;28;20994;-77
2022/03/12 21:02:47;;;;;;;8.00;6.40;;;8.60;14.60;;;;;;10397126;28;20246;-76
2022/03/12 21:07:54;;;;;;;9.00;6.63;;;8.40;14.60;;;;;;10392382;28;20276;-77
2022/03/12 21:12:59;;;;;;;8.70;6.23;;;8.30;14.70;;;;;;10395590;28;20260;-77
2022/03/12 21:18:02;;;;;;;6.30;5.57;;;8.30;15.00;;;;;;10394889;28;20777;-75
2022/03/12 21:23:06;;;;;;;8.47;5.50;;;8.20;14.90;;;;;;10389705;28;20229;-77
2022/03/12 21:28:11;;;;;;;8.77;6.20;;;8.10;15.00;;;;;;10393557;28;20233;-77
2022/03/12 21:33:15;;;;;;;7.57;6.63;;;7.90;15.10;;;;;;10394898;28;20725;-77
2022/03/12 21:38:19;;;;;;;6.17;5.53;;;7.80;15.10;;;;;;10396098;28;20241;-77
2022/03/12 21:43:26;;;;;;;5.73;5.13;;;7.70;15.20;;;;;;10407592;28;20710;-77
2022/03/12 21:48:29;;;;;;;6.30;5.70;;;7.60;15.20;;;;;;10407318;28;20243;-76
2022/03/12 21:53:32;;;;;;;8.17;6.73;;;7.50;15.20;;;;;;10405426;28;20233;-76
2022/03/12 21:58:37;;;;;;;8.43;5.93;;;7.50;15.30;;;;;;10400972;28;20902;-76
2022/03/12 22:03:40;;;;;;;7.37;6.17;;;7.40;15.50;;;;;;10398026;28;20731;-76
2022/03/12 22:08:44;;;;;;;9.07;6.47;;;7.40;15.50;;;;;;10398703;28;20269;-77
2022/03/12 22:13:48;;;;;;;5.77;5.23;;;7.40;15.50;;;;;;10400278;28;20233;-76
2022/03/12 22:18:52;;;;;;;6.67;5.53;;;7.30;15.60;;;;;;10395722;28;20321;-76
2022/03/12 22:37:10;;;;;;;7.07;6.37;;;6.90;16.40;;;;;;10012066;29;20776;-74
2022/03/12 22:48:38;;;;;;;7.10;6.40;;;6.90;15.90;;;;;;10212991;23;20661;-76
2022/03/12 22:53:43;;;;;;;7.60;6.53;;;6.80;15.60;;;;;;10320543;28;20243;-75
2022/03/12 22:58:46;;;;;;;6.73;6.13;;;6.70;15.80;;;;;;10329763;28;20247;-76
2022/03/12 23:09:11;;;;;;;6.93;6.23;;;6.60;15.80;;;;;;10315323;28;20226;-77
2022/03/12 23:14:22;;;;;;;6.83;6.23;;;6.50;16.00;;;;;;10315616;28;20233;-75
2022/03/12 23:19:27;;;;;;;7.47;6.37;;;6.50;16.30;;;;;;10325929;28;20241;-75
2022/03/12 23:24:32;;;;;;;8.87;6.17;;;6.40;16.10;;;;;;10308464;28;20261;-75
2022/03/12 23:29:35;;;;;;;8.87;6.27;;;6.30;16.20;;;;;;10327795;28;20233;-75
2022/03/12 23:34:38;;;;;;;8.63;6.70;;;6.30;16.00;;;;;;10319705;28;20246;-75
2022/03/12 23:39:43;;;;;;;6.80;6.03;;;6.20;16.00;;;;;;10314409;28;20705;-74
2022/03/12 23:44:46;;;;;;;7.73;6.07;;;6.10;16.10;;;;;;10320627;28;20753;-75
2022/03/12 23:49:50;;;;;;;8.57;6.20;;;6.10;15.90;;;;;;10323298;28;20231;-77
2022/03/12 23:54:56;;;;;;;7.30;5.70;;;6.00;16.00;;;;;;10317120;28;20235;-75
